EDDP/LEJ METAR and TAF weather

Enter ICAO airport designator
Station Type Date Time Source
EDDP METAR 2022/12/10 02:20 UTC NOAA

EDDP 100220Z AUTO 04005KT 6000 -SN OVC006 M01/M02 Q1007 TEMPO 4000 -SN BKN004


Station Type Date Time Source
EDDP Decoded METAR 2022/12/10 02:20 UTC NOAA

Leipzig-Schkeuditz, Germany (EDDP) 51-25N 012-14E 149M
Dec 09, 2022 - 09:20 PM EST / 2022.12.10 0220 UTC
Wind: from the NE (040 degrees) at 6 MPH (5 KT):0
Visibility: 3 mile(s):0
Sky conditions: overcast
Weather: light snow
Temperature: 30 F (-1 C)
Windchill: 23 F (-5 C):1
Dew Point: 28 F (-2 C)
Relative Humidity: 92%
Pressure (altimeter): 29.74 in. Hg (1007 hPa)
ob: EDDP 100220Z AUTO 04005KT 6000 -SN OVC006 M01/M02 Q1007 TEMPO 4000 -SN BKN004
cycle: 2

Station Type Date Time Source
EDDP TAF 2022/12/09 18:27 UTC NOAA

TAF EDDP 091700Z 0918/1018 05005KT 9000 BKN005
BECMG 0918/0921 4000 -SN BR BKN003
TEMPO 1000/1008 0800 -SN FZFG OVC001

Example: see airport list